Flight Track Log - Related Links

Times and Time Zones

All times are in EDT time to prevent confusion due to time zone crossing. See the SLI230 flight status page for this flight to view local times or setup timezone preferences in your user account.

Time Position Orientation Groundspeed Altitude Reporting Facility
EDT Latitude Longitude Course Direction KTS MPH feet Rate Location/Type
Fri 01:50:00 PM 19.6744 -99.2324 328° Northwest  Level Estimated
Fri 01:51:00 PM 19.7537 -99.2859 328° Northwest  Level Estimated
Fri 01:52:00 PM 19.8330 -99.3395 328° Northwest  Level Estimated
Fri 01:53:00 PM 19.9123 -99.3931 328° Northwest  Level Estimated
Fri 01:54:00 PM 19.9916 -99.4468 328° Northwest  Level Estimated
Fri 01:55:00 PM 20.0708 -99.5005 328° Northwest  Level Estimated
Fri 01:56:00 PM 20.1500 -99.5544 327° Northwest  Level Estimated
Fri 01:57:00 PM 20.2293 -99.6082 327° Northwest  Level Estimated
Fri 01:58:00 PM 20.3085 -99.6621 327° Northwest  Level Estimated
Fri 01:59:00 PM 20.3877 -99.7161 327° Northwest  Level Estimated
Fri 02:00:00 PM 20.4669 -99.7701 327° Northwest  Level Estimated
Fri 02:01:00 PM 20.5460 -99.8242 327° Northwest  Level Estimated
Fri 02:02:00 PM 20.6252 -99.8783 327° Northwest  Level Estimated
Fri 02:03:00 PM 20.7043 -99.9325 327° Northwest  Level Estimated
Fri 02:04:00 PM 20.7834 -99.9867 327° Northwest  Level Estimated
Fri 02:05:00 PM 20.8625 -100.0410 327° Northwest  Level Estimated
Fri 02:06:00 PM 20.9416 -100.0954 327° Northwest  Level Estimated
Fri 02:07:00 PM 21.0206 -100.1498 327° Northwest  Level Estimated
Fri 02:08:00 PM 21.0997 -100.2043 327° Northwest  Level Estimated
Fri 02:09:00 PM 21.1787 -100.2588 327° Northwest  Level Estimated
Fri 02:10:00 PM 21.2577 -100.3134 327° Northwest  Level Estimated
Fri 02:11:00 PM 21.3367 -100.3680 327° Northwest  Level Estimated
Fri 02:12:00 PM 21.4156 -100.4227 327° Northwest  Level Estimated
Fri 02:13:00 PM 21.4946 -100.4775 327° Northwest  Level Estimated
Fri 02:14:00 PM 21.5735 -100.5323 327° Northwest  Level Estimated
Fri 02:15:00 PM 21.6524 -100.5872 327° Northwest  Level Estimated
Fri 02:16:00 PM 21.7313 -100.6421 327° Northwest  Level Estimated
Fri 02:17:00 PM 21.8102 -100.6971 327° Northwest  Level Estimated
Fri 02:18:00 PM 21.8891 -100.7522 327° Northwest  Level Estimated
Fri 02:19:00 PM 21.9679 -100.8073 327° Northwest  Level Estimated
Fri 02:20:00 PM 22.0467 -100.8625 327° Northwest  Level Estimated
Fri 02:21:00 PM 22.1255 -100.9178 327° Northwest  Level Estimated
Fri 02:22:00 PM 22.2043 -100.9731 327° Northwest  Level Estimated
Fri 02:23:00 PM 22.2831 -101.0285 327° Northwest  Level Estimated
Fri 02:24:00 PM 22.3619 -101.0839 327° Northwest  Level Estimated
Fri 02:25:00 PM 22.4406 -101.1394 327° Northwest  Level Estimated
Fri 02:26:00 PM 22.5193 -101.1949 327° Northwest  Level Estimated
Fri 02:27:00 PM 22.5980 -101.2506 327° Northwest  Level Estimated
Fri 02:28:00 PM 22.6767 -101.3063 327° Northwest  Level Estimated
Fri 02:29:00 PM 22.7553 -101.3620 327° Northwest  Level Estimated
Fri 02:30:00 PM 22.8340 -101.4178 327° Northwest  Level Estimated
Fri 02:31:00 PM 22.9126 -101.4737 327° Northwest  Level Estimated
Fri 02:32:00 PM 22.9912 -101.5296 327° Northwest  Level Estimated
Fri 02:33:00 PM 23.0697 -101.5857 327° Northwest  Level Estimated
Fri 02:34:00 PM 23.1483 -101.6417 327° Northwest  Level Estimated
Fri 02:35:00 PM 23.2269 -101.6979 327° Northwest  Level Estimated
Fri 02:36:00 PM 23.3054 -101.7541 327° Northwest  Level Estimated
Fri 02:37:00 PM 23.3839 -101.8104 327° Northwest  Level Estimated
Fri 02:38:00 PM 23.4624 -101.8667 327° Northwest  Level Estimated
Fri 02:39:00 PM 23.5408 -101.9231 327° Northwest  Level Estimated
Fri 02:40:00 PM 23.6192 -101.9796 327° Northwest  Level Estimated
Fri 02:41:00 PM 23.6977 -102.0361 327° Northwest  Level Estimated
Fri 02:42:00 PM 23.7761 -102.0927 327° Northwest  Level Estimated
Fri 02:43:00 PM 23.8544 -102.1494 327° Northwest  Level Estimated
Fri 02:44:00 PM 23.9328 -102.2062 326° Northwest  Level Estimated
Fri 02:45:00 PM 24.0111 -102.2630 326° Northwest  Level Estimated
Fri 02:46:00 PM 24.0894 -102.3199 326° Northwest  Level Estimated
Fri 02:47:00 PM 24.1677 -102.3768 326° Northwest  Level Estimated
Fri 02:48:00 PM 24.2460 -102.4339 326° Northwest  Level Estimated
Fri 02:49:00 PM 24.3242 -102.4910 326° Northwest  Level Estimated
Fri 02:50:00 PM 24.4025 -102.5481 326° Northwest  Level Estimated
Fri 02:51:00 PM 24.4807 -102.6054 326° Northwest  Level Estimated
Fri 02:52:00 PM 24.5588 -102.6627 326° Northwest  Level Estimated
Fri 02:53:00 PM 24.6370 -102.7200 326° Northwest  Level Estimated
Fri 02:54:00 PM 24.7152 -102.7775 326° Northwest  Level Estimated
Fri 02:55:00 PM 24.7933 -102.8350 326° Northwest  Level Estimated
Fri 02:56:00 PM 24.8714 -102.8926 326° Northwest  Level Estimated
Fri 02:57:00 PM 24.9494 -102.9503 326° Northwest  Level Estimated
Fri 02:58:00 PM 25.0275 -103.0080 326° Northwest  Level Estimated
Fri 02:59:00 PM 25.1055 -103.0658 326° Northwest  Level Estimated
Fri 03:00:00 PM 25.1835 -103.1237 326° Northwest  Level Estimated
Fri 03:01:00 PM 25.2615 -103.1817 326° Northwest  Level Estimated
Fri 03:02:00 PM 25.3395 -103.2397 326° Northwest  Level Estimated

Login

Don't have an account? Register now (free) for customized features, flight alerts, and more!